sensor_id;sensor_type;location;lat;lon;timestamp;P1;durP1;ratioP1;P2;durP2;ratioP2
52230;SDS011;38192;50.102;19.884;2022-08-05T00:01:19;11.60;;;4.95;;
52230;SDS011;38192;50.102;19.884;2022-08-05T00:03:49;9.80;;;4.57;;
52230;SDS011;38192;50.102;19.884;2022-08-05T00:06:16;13.70;;;4.97;;
52230;SDS011;38192;50.102;19.884;2022-08-05T00:08:42;8.40;;;4.22;;
52230;SDS011;38192;50.102;19.884;2022-08-05T00:11:11;9.52;;;4.65;;
52230;SDS011;38192;50.102;19.884;2022-08-05T00:13:38;6.68;;;4.70;;
52230;SDS011;38192;50.102;19.884;2022-08-05T00:16:10;11.77;;;4.63;;
52230;SDS011;38192;50.102;19.884;2022-08-05T00:18:37;8.88;;;4.63;;
52230;SDS011;38192;50.102;19.884;2022-08-05T00:21:08;6.78;;;4.53;;
52230;SDS011;38192;50.102;19.884;2022-08-05T00:23:35;8.02;;;4.35;;
52230;SDS011;38192;50.102;19.884;2022-08-05T00:26:04;7.00;;;4.60;;
52230;SDS011;38192;50.102;19.884;2022-08-05T00:28:30;5.40;;;4.28;;
52230;SDS011;38192;50.102;19.884;2022-08-05T00:30:57;7.40;;;4.25;;
52230;SDS011;38192;50.102;19.884;2022-08-05T00:33:22;6.00;;;4.50;;
52230;SDS011;38192;50.102;19.884;2022-08-05T00:35:48;7.22;;;4.55;;
52230;SDS011;38192;50.102;19.884;2022-08-05T00:38:14;6.60;;;4.75;;
52230;SDS011;38192;50.102;19.884;2022-08-05T00:40:47;12.48;;;5.03;;
52230;SDS011;38192;50.102;19.884;2022-08-05T00:43:21;5.53;;;3.75;;
52230;SDS011;38192;50.102;19.884;2022-08-05T00:45:48;6.05;;;4.13;;
52230;SDS011;38192;50.102;19.884;2022-08-05T00:48:14;10.25;;;5.00;;
52230;SDS011;38192;50.102;19.884;2022-08-05T00:50:42;7.90;;;4.53;;
52230;SDS011;38192;50.102;19.884;2022-08-05T00:53:10;8.32;;;4.68;;
52230;SDS011;38192;50.102;19.884;2022-08-05T00:55:36;6.97;;;4.70;;
52230;SDS011;38192;50.102;19.884;2022-08-05T00:58:02;7.53;;;4.55;;
52230;SDS011;38192;50.102;19.884;2022-08-05T01:00:28;6.38;;;4.25;;
52230;SDS011;38192;50.102;19.884;2022-08-05T01:02:55;10.98;;;5.00;;
52230;SDS011;38192;50.102;19.884;2022-08-05T01:05:22;6.65;;;4.07;;
52230;SDS011;38192;50.102;19.884;2022-08-05T01:07:49;6.57;;;4.75;;
52230;SDS011;38192;50.102;19.884;2022-08-05T01:10:15;7.82;;;4.32;;
52230;SDS011;38192;50.102;19.884;2022-08-05T01:12:46;9.20;;;4.93;;
52230;SDS011;38192;50.102;19.884;2022-08-05T01:15:17;5.63;;;4.38;;
52230;SDS011;38192;50.102;19.884;2022-08-05T01:17:50;20.77;;;5.88;;
52230;SDS011;38192;50.102;19.884;2022-08-05T01:20:49;11.93;;;5.15;;
52230;SDS011;38192;50.102;19.884;2022-08-05T01:26:32;7.30;;;4.60;;
52230;SDS011;38192;50.102;19.884;2022-08-05T01:29:03;12.52;;;4.75;;
52230;SDS011;38192;50.102;19.884;2022-08-05T01:31:37;5.68;;;4.00;;
52230;SDS011;38192;50.102;19.884;2022-08-05T01:37:06;7.95;;;5.22;;
52230;SDS011;38192;50.102;19.884;2022-08-05T01:39:51;5.97;;;4.50;;
52230;SDS011;38192;50.102;19.884;2022-08-05T01:42:19;11.88;;;5.43;;
52230;SDS011;38192;50.102;19.884;2022-08-05T01:44:49;9.60;;;5.45;;
52230;SDS011;38192;50.102;19.884;2022-08-05T01:47:16;9.73;;;4.82;;
52230;SDS011;38192;50.102;19.884;2022-08-05T01:49:45;8.63;;;5.50;;
52230;SDS011;38192;50.102;19.884;2022-08-05T01:52:14;7.30;;;4.93;;
52230;SDS011;38192;50.102;19.884;2022-08-05T01:54:45;9.15;;;5.82;;
52230;SDS011;38192;50.102;19.884;2022-08-05T01:57:23;8.05;;;4.97;;
52230;SDS011;38192;50.102;19.884;2022-08-05T01:59:53;8.93;;;5.10;;
52230;SDS011;38192;50.102;19.884;2022-08-05T02:02:23;9.50;;;5.00;;
52230;SDS011;38192;50.102;19.884;2022-08-05T02:04:50;6.85;;;5.03;;
52230;SDS011;38192;50.102;19.884;2022-08-05T02:07:19;8.05;;;5.53;;
52230;SDS011;38192;50.102;19.884;2022-08-05T02:09:45;7.00;;;5.40;;
52230;SDS011;38192;50.102;19.884;2022-08-05T02:12:14;9.68;;;5.20;;
52230;SDS011;38192;50.102;19.884;2022-08-05T02:14:44;7.72;;;4.38;;
52230;SDS011;38192;50.102;19.884;2022-08-05T02:17:37;8.73;;;4.93;;
52230;SDS011;38192;50.102;19.884;2022-08-05T02:20:22;7.50;;;4.78;;
52230;SDS011;38192;50.102;19.884;2022-08-05T02:22:56;10.13;;;5.38;;
52230;SDS011;38192;50.102;19.884;2022-08-05T02:25:25;8.13;;;5.15;;
52230;SDS011;38192;50.102;19.884;2022-08-05T02:27:55;11.15;;;5.72;;
52230;SDS011;38192;50.102;19.884;2022-08-05T02:30:22;9.18;;;5.47;;
52230;SDS011;38192;50.102;19.884;2022-08-05T02:32:51;12.02;;;5.45;;
52230;SDS011;38192;50.102;19.884;2022-08-05T02:35:20;9.07;;;5.97;;
52230;SDS011;38192;50.102;19.884;2022-08-05T02:37:47;7.13;;;5.10;;
52230;SDS011;38192;50.102;19.884;2022-08-05T02:40:16;17.58;;;6.20;;
52230;SDS011;38192;50.102;19.884;2022-08-05T02:42:43;15.75;;;6.15;;
52230;SDS011;38192;50.102;19.884;2022-08-05T02:45:11;15.05;;;6.15;;
52230;SDS011;38192;50.102;19.884;2022-08-05T02:47:38;9.02;;;5.40;;
52230;SDS011;38192;50.102;19.884;2022-08-05T02:50:05;7.88;;;4.78;;
52230;SDS011;38192;50.102;19.884;2022-08-05T02:52:33;10.43;;;5.13;;
52230;SDS011;38192;50.102;19.884;2022-08-05T02:55:00;11.70;;;6.25;;
52230;SDS011;38192;50.102;19.884;2022-08-05T02:57:27;9.50;;;5.63;;
52230;SDS011;38192;50.102;19.884;2022-08-05T02:59:54;11.38;;;5.40;;
52230;SDS011;38192;50.102;19.884;2022-08-05T03:02:22;5.90;;;4.65;;
52230;SDS011;38192;50.102;19.884;2022-08-05T03:04:51;7.30;;;4.75;;
52230;SDS011;38192;50.102;19.884;2022-08-05T03:07:19;11.88;;;5.60;;
52230;SDS011;38192;50.102;19.884;2022-08-05T03:09:46;6.28;;;5.13;;
52230;SDS011;38192;50.102;19.884;2022-08-05T03:12:28;9.95;;;5.47;;
52230;SDS011;38192;50.102;19.884;2022-08-05T03:14:55;12.30;;;5.32;;
52230;SDS011;38192;50.102;19.884;2022-08-05T03:17:21;8.20;;;5.28;;
52230;SDS011;38192;50.102;19.884;2022-08-05T03:19:46;8.95;;;6.10;;
52230;SDS011;38192;50.102;19.884;2022-08-05T03:22:12;9.75;;;5.57;;
52230;SDS011;38192;50.102;19.884;2022-08-05T03:24:39;13.60;;;6.30;;
52230;SDS011;38192;50.102;19.884;2022-08-05T03:27:07;9.23;;;5.75;;
52230;SDS011;38192;50.102;19.884;2022-08-05T03:29:33;9.32;;;5.50;;
52230;SDS011;38192;50.102;19.884;2022-08-05T03:31:59;8.00;;;5.60;;
52230;SDS011;38192;50.102;19.884;2022-08-05T03:34:26;10.65;;;5.90;;
52230;SDS011;38192;50.102;19.884;2022-08-05T03:36:52;10.73;;;6.00;;
52230;SDS011;38192;50.102;19.884;2022-08-05T03:39:18;8.43;;;5.43;;
52230;SDS011;38192;50.102;19.884;2022-08-05T03:41:44;10.13;;;5.07;;
52230;SDS011;38192;50.102;19.884;2022-08-05T03:44:10;7.25;;;4.88;;
52230;SDS011;38192;50.102;19.884;2022-08-05T03:46:35;10.15;;;6.20;;
52230;SDS011;38192;50.102;19.884;2022-08-05T03:49:01;14.02;;;7.68;;
52230;SDS011;38192;50.102;19.884;2022-08-05T03:51:28;13.25;;;6.97;;
52230;SDS011;38192;50.102;19.884;2022-08-05T03:56:32;15.40;;;6.65;;
52230;SDS011;38192;50.102;19.884;2022-08-05T03:59:05;8.50;;;5.70;;
52230;SDS011;38192;50.102;19.884;2022-08-05T04:01:35;11.38;;;5.32;;
52230;SDS011;38192;50.102;19.884;2022-08-05T04:04:03;7.10;;;5.07;;
52230;SDS011;38192;50.102;19.884;2022-08-05T04:06:34;6.72;;;5.68;;
52230;SDS011;38192;50.102;19.884;2022-08-05T04:09:02;10.30;;;5.53;;
52230;SDS011;38192;50.102;19.884;2022-08-05T04:11:30;14.05;;;6.85;;
52230;SDS011;38192;50.102;19.884;2022-08-05T04:13:57;13.32;;;6.78;;
52230;SDS011;38192;50.102;19.884;2022-08-05T04:16:24;11.85;;;6.40;;
52230;SDS011;38192;50.102;19.884;2022-08-05T04:18:50;8.23;;;5.60;;
52230;SDS011;38192;50.102;19.884;2022-08-05T04:21:17;12.68;;;6.68;;
52230;SDS011;38192;50.102;19.884;2022-08-05T04:23:42;12.60;;;6.47;;
52230;SDS011;38192;50.102;19.884;2022-08-05T04:26:08;12.23;;;6.03;;
52230;SDS011;38192;50.102;19.884;2022-08-05T04:28:35;13.02;;;7.00;;
52230;SDS011;38192;50.102;19.884;2022-08-05T04:31:00;12.80;;;6.18;;
52230;SDS011;38192;50.102;19.884;2022-08-05T04:33:26;16.65;;;7.68;;
52230;SDS011;38192;50.102;19.884;2022-08-05T04:35:53;20.10;;;7.40;;
52230;SDS011;38192;50.102;19.884;2022-08-05T04:38:19;18.77;;;8.00;;
52230;SDS011;38192;50.102;19.884;2022-08-05T04:40:45;13.70;;;7.53;;
52230;SDS011;38192;50.102;19.884;2022-08-05T04:43:10;10.25;;;6.80;;
52230;SDS011;38192;50.102;19.884;2022-08-05T04:45:36;27.00;;;8.07;;
52230;SDS011;38192;50.102;19.884;2022-08-05T04:48:12;10.10;;;6.93;;
52230;SDS011;38192;50.102;19.884;2022-08-05T04:50:43;14.43;;;7.28;;
52230;SDS011;38192;50.102;19.884;2022-08-05T04:53:10;14.18;;;6.60;;
52230;SDS011;38192;50.102;19.884;2022-08-05T04:55:37;14.38;;;7.78;;
52230;SDS011;38192;50.102;19.884;2022-08-05T04:58:04;16.20;;;7.22;;
52230;SDS011;38192;50.102;19.884;2022-08-05T05:00:34;13.18;;;6.30;;
52230;SDS011;38192;50.102;19.884;2022-08-05T05:03:01;14.95;;;7.07;;
52230;SDS011;38192;50.102;19.884;2022-08-05T05:05:28;8.68;;;6.45;;
52230;SDS011;38192;50.102;19.884;2022-08-05T05:08:04;22.35;;;7.65;;
52230;SDS011;38192;50.102;19.884;2022-08-05T05:10:36;17.50;;;7.25;;
52230;SDS011;38192;50.102;19.884;2022-08-05T05:13:06;26.30;;;7.13;;
52230;SDS011;38192;50.102;19.884;2022-08-05T05:15:36;20.65;;;7.45;;
52230;SDS011;38192;50.102;19.884;2022-08-05T05:18:02;28.58;;;7.95;;
52230;SDS011;38192;50.102;19.884;2022-08-05T05:20:29;14.98;;;6.97;;
52230;SDS011;38192;50.102;19.884;2022-08-05T05:22:56;21.17;;;7.18;;
52230;SDS011;38192;50.102;19.884;2022-08-05T05:25:22;26.05;;;7.38;;
52230;SDS011;38192;50.102;19.884;2022-08-05T05:27:48;27.30;;;7.15;;
52230;SDS011;38192;50.102;19.884;2022-08-05T05:30:17;33.35;;;7.47;;
52230;SDS011;38192;50.102;19.884;2022-08-05T05:32:43;24.00;;;7.20;;
52230;SDS011;38192;50.102;19.884;2022-08-05T05:35:09;22.27;;;6.82;;
52230;SDS011;38192;50.102;19.884;2022-08-05T05:40:32;33.08;;;8.25;;
52230;SDS011;38192;50.102;19.884;2022-08-05T05:42:58;27.70;;;7.22;;
52230;SDS011;38192;50.102;19.884;2022-08-05T05:45:24;21.20;;;6.75;;
52230;SDS011;38192;50.102;19.884;2022-08-05T05:47:50;23.70;;;7.35;;
52230;SDS011;38192;50.102;19.884;2022-08-05T05:50:17;24.27;;;6.28;;
52230;SDS011;38192;50.102;19.884;2022-08-05T05:52:43;20.83;;;6.22;;
52230;SDS011;38192;50.102;19.884;2022-08-05T05:55:11;17.88;;;6.40;;
52230;SDS011;38192;50.102;19.884;2022-08-05T05:57:39;24.20;;;7.55;;
52230;SDS011;38192;50.102;19.884;2022-08-05T06:00:07;12.35;;;5.90;;
52230;SDS011;38192;50.102;19.884;2022-08-05T06:02:37;23.33;;;6.57;;
52230;SDS011;38192;50.102;19.884;2022-08-05T06:05:05;26.88;;;7.25;;
52230;SDS011;38192;50.102;19.884;2022-08-05T06:07:32;25.40;;;6.00;;
52230;SDS011;38192;50.102;19.884;2022-08-05T06:09:58;18.63;;;6.65;;
52230;SDS011;38192;50.102;19.884;2022-08-05T06:12:24;15.65;;;5.18;;
52230;SDS011;38192;50.102;19.884;2022-08-05T06:14:49;14.18;;;5.75;;
52230;SDS011;38192;50.102;19.884;2022-08-05T06:17:16;20.10;;;6.50;;
52230;SDS011;38192;50.102;19.884;2022-08-05T06:19:42;27.77;;;7.18;;
52230;SDS011;38192;50.102;19.884;2022-08-05T06:22:08;16.33;;;6.53;;
52230;SDS011;38192;50.102;19.884;2022-08-05T06:24:34;16.33;;;6.40;;
52230;SDS011;38192;50.102;19.884;2022-08-05T06:27:05;14.50;;;6.40;;
52230;SDS011;38192;50.102;19.884;2022-08-05T06:29:31;14.73;;;6.25;;
52230;SDS011;38192;50.102;19.884;2022-08-05T06:31:57;13.07;;;6.28;;
52230;SDS011;38192;50.102;19.884;2022-08-05T06:34:23;21.83;;;6.75;;
52230;SDS011;38192;50.102;19.884;2022-08-05T06:36:48;17.77;;;6.43;;
52230;SDS011;38192;50.102;19.884;2022-08-05T06:39:14;17.77;;;7.18;;
52230;SDS011;38192;50.102;19.884;2022-08-05T06:41:40;23.38;;;5.80;;
52230;SDS011;38192;50.102;19.884;2022-08-05T06:44:06;19.23;;;5.75;;
52230;SDS011;38192;50.102;19.884;2022-08-05T06:46:32;14.23;;;6.05;;
52230;SDS011;38192;50.102;19.884;2022-08-05T06:48:58;14.05;;;5.28;;
52230;SDS011;38192;50.102;19.884;2022-08-05T06:51:24;11.60;;;5.65;;
52230;SDS011;38192;50.102;19.884;2022-08-05T06:53:50;9.50;;;5.22;;
52230;SDS011;38192;50.102;19.884;2022-08-05T06:56:16;15.73;;;6.10;;
52230;SDS011;38192;50.102;19.884;2022-08-05T06:58:43;14.95;;;5.07;;
52230;SDS011;38192;50.102;19.884;2022-08-05T07:01:09;20.77;;;5.90;;
52230;SDS011;38192;50.102;19.884;2022-08-05T07:03:35;11.35;;;5.15;;
52230;SDS011;38192;50.102;19.884;2022-08-05T07:06:01;18.02;;;5.43;;
52230;SDS011;38192;50.102;19.884;2022-08-05T07:08:28;13.07;;;5.15;;
52230;SDS011;38192;50.102;19.884;2022-08-05T07:10:54;18.33;;;5.80;;
52230;SDS011;38192;50.102;19.884;2022-08-05T07:13:21;18.15;;;5.75;;
52230;SDS011;38192;50.102;19.884;2022-08-05T07:16:06;14.60;;;5.90;;
52230;SDS011;38192;50.102;19.884;2022-08-05T07:18:50;19.33;;;6.03;;
52230;SDS011;38192;50.102;19.884;2022-08-05T07:21:16;15.93;;;6.43;;
52230;SDS011;38192;50.102;19.884;2022-08-05T07:23:42;21.80;;;6.35;;
52230;SDS011;38192;50.102;19.884;2022-08-05T07:26:08;17.63;;;5.45;;
52230;SDS011;38192;50.102;19.884;2022-08-05T07:28:34;17.48;;;5.82;;
52230;SDS011;38192;50.102;19.884;2022-08-05T07:30:59;19.23;;;5.85;;
52230;SDS011;38192;50.102;19.884;2022-08-05T07:33:25;26.17;;;5.30;;
52230;SDS011;38192;50.102;19.884;2022-08-05T07:35:51;12.60;;;4.85;;
52230;SDS011;38192;50.102;19.884;2022-08-05T07:38:17;21.48;;;5.45;;
52230;SDS011;38192;50.102;19.884;2022-08-05T07:40:43;11.38;;;4.53;;
52230;SDS011;38192;50.102;19.884;2022-08-05T07:43:10;17.70;;;5.18;;
52230;SDS011;38192;50.102;19.884;2022-08-05T07:45:38;15.45;;;4.60;;
52230;SDS011;38192;50.102;19.884;2022-08-05T07:48:06;19.70;;;5.13;;
52230;SDS011;38192;50.102;19.884;2022-08-05T07:50:32;12.65;;;4.88;;
52230;SDS011;38192;50.102;19.884;2022-08-05T07:52:57;12.23;;;4.03;;
52230;SDS011;38192;50.102;19.884;2022-08-05T07:55:23;11.57;;;5.07;;
52230;SDS011;38192;50.102;19.884;2022-08-05T07:57:49;17.27;;;5.38;;
52230;SDS011;38192;50.102;19.884;2022-08-05T08:00:16;15.15;;;5.18;;
52230;SDS011;38192;50.102;19.884;2022-08-05T08:02:43;14.93;;;4.60;;
52230;SDS011;38192;50.102;19.884;2022-08-05T08:05:09;15.57;;;5.20;;
52230;SDS011;38192;50.102;19.884;2022-08-05T08:07:35;11.77;;;5.47;;
52230;SDS011;38192;50.102;19.884;2022-08-05T08:10:01;12.90;;;5.57;;
52230;SDS011;38192;50.102;19.884;2022-08-05T08:12:29;18.70;;;5.88;;
52230;SDS011;38192;50.102;19.884;2022-08-05T08:14:55;12.77;;;5.32;;
52230;SDS011;38192;50.102;19.884;2022-08-05T08:17:21;14.57;;;5.88;;
52230;SDS011;38192;50.102;19.884;2022-08-05T08:19:47;20.45;;;5.45;;
52230;SDS011;38192;50.102;19.884;2022-08-05T08:22:13;16.30;;;5.57;;
52230;SDS011;38192;50.102;19.884;2022-08-05T08:24:39;12.35;;;5.18;;
52230;SDS011;38192;50.102;19.884;2022-08-05T08:27:05;15.00;;;5.50;;
52230;SDS011;38192;50.102;19.884;2022-08-05T08:29:31;21.00;;;6.65;;
52230;SDS011;38192;50.102;19.884;2022-08-05T08:31:57;16.70;;;5.90;;
52230;SDS011;38192;50.102;19.884;2022-08-05T08:34:24;14.27;;;6.13;;
52230;SDS011;38192;50.102;19.884;2022-08-05T08:36:51;14.05;;;5.70;;
52230;SDS011;38192;50.102;19.884;2022-08-05T08:39:17;15.13;;;6.57;;
52230;SDS011;38192;50.102;19.884;2022-08-05T08:41:44;16.65;;;6.90;;
52230;SDS011;38192;50.102;19.884;2022-08-05T08:44:12;19.25;;;6.88;;
52230;SDS011;38192;50.102;19.884;2022-08-05T08:46:39;17.15;;;6.43;;
52230;SDS011;38192;50.102;19.884;2022-08-05T08:49:07;18.25;;;6.72;;
52230;SDS011;38192;50.102;19.884;2022-08-05T08:51:34;17.33;;;6.60;;
52230;SDS011;38192;50.102;19.884;2022-08-05T08:54:02;17.63;;;6.15;;
52230;SDS011;38192;50.102;19.884;2022-08-05T08:56:29;18.25;;;6.63;;
52230;SDS011;38192;50.102;19.884;2022-08-05T08:58:56;18.08;;;6.85;;
52230;SDS011;38192;50.102;19.884;2022-08-05T09:01:23;18.83;;;6.97;;
52230;SDS011;38192;50.102;19.884;2022-08-05T09:03:51;15.90;;;6.72;;
52230;SDS011;38192;50.102;19.884;2022-08-05T09:06:18;13.27;;;6.22;;
52230;SDS011;38192;50.102;19.884;2022-08-05T09:08:44;18.65;;;6.82;;
52230;SDS011;38192;50.102;19.884;2022-08-05T09:11:10;19.10;;;6.93;;
52230;SDS011;38192;50.102;19.884;2022-08-05T09:13:37;29.52;;;6.25;;
52230;SDS011;38192;50.102;19.884;2022-08-05T09:16:03;17.52;;;6.78;;
52230;SDS011;38192;50.102;19.884;2022-08-05T09:18:32;14.20;;;5.88;;
52230;SDS011;38192;50.102;19.884;2022-08-05T09:21:00;19.55;;;6.35;;
52230;SDS011;38192;50.102;19.884;2022-08-05T09:23:26;14.35;;;5.90;;
52230;SDS011;38192;50.102;19.884;2022-08-05T09:26:04;12.32;;;5.20;;
52230;SDS011;38192;50.102;19.884;2022-08-05T09:28:31;11.43;;;5.50;;
52230;SDS011;38192;50.102;19.884;2022-08-05T09:31:11;11.30;;;5.40;;
52230;SDS011;38192;50.102;19.884;2022-08-05T09:33:47;9.10;;;5.25;;
52230;SDS011;38192;50.102;19.884;2022-08-05T09:36:15;11.25;;;4.72;;
52230;SDS011;38192;50.102;19.884;2022-08-05T09:38:57;10.80;;;5.07;;
52230;SDS011;38192;50.102;19.884;2022-08-05T09:41:28;15.52;;;4.60;;
52230;SDS011;38192;50.102;19.884;2022-08-05T09:43:54;10.23;;;4.65;;
52230;SDS011;38192;50.102;19.884;2022-08-05T09:46:30;8.90;;;4.57;;
52230;SDS011;38192;50.102;19.884;2022-08-05T09:48:58;9.98;;;4.50;;
52230;SDS011;38192;50.102;19.884;2022-08-05T09:51:38;14.70;;;4.88;;
52230;SDS011;38192;50.102;19.884;2022-08-05T09:54:06;6.63;;;4.10;;
52230;SDS011;38192;50.102;19.884;2022-08-05T09:56:33;13.65;;;4.32;;
52230;SDS011;38192;50.102;19.884;2022-08-05T09:59:07;12.40;;;4.68;;
52230;SDS011;38192;50.102;19.884;2022-08-05T10:01:36;12.88;;;4.28;;
52230;SDS011;38192;50.102;19.884;2022-08-05T10:04:06;9.55;;;4.45;;
52230;SDS011;38192;50.102;19.884;2022-08-05T10:06:37;7.85;;;4.00;;
52230;SDS011;38192;50.102;19.884;2022-08-05T10:11:37;6.78;;;3.92;;
52230;SDS011;38192;50.102;19.884;2022-08-05T10:17:14;6.20;;;4.35;;
52230;SDS011;38192;50.102;19.884;2022-08-05T10:19:40;10.98;;;5.50;;
52230;SDS011;38192;50.102;19.884;2022-08-05T10:22:07;8.88;;;3.88;;
52230;SDS011;38192;50.102;19.884;2022-08-05T10:24:33;7.53;;;4.25;;
52230;SDS011;38192;50.102;19.884;2022-08-05T10:26:59;5.10;;;3.97;;
52230;SDS011;38192;50.102;19.884;2022-08-05T10:29:25;4.57;;;3.80;;
52230;SDS011;38192;50.102;19.884;2022-08-05T10:31:53;7.53;;;4.15;;
52230;SDS011;38192;50.102;19.884;2022-08-05T10:34:20;10.13;;;4.05;;
52230;SDS011;38192;50.102;19.884;2022-08-05T10:36:46;5.78;;;4.05;;
52230;SDS011;38192;50.102;19.884;2022-08-05T10:39:16;6.45;;;3.53;;
52230;SDS011;38192;50.102;19.884;2022-08-05T10:41:46;5.50;;;3.70;;
52230;SDS011;38192;50.102;19.884;2022-08-05T10:44:24;5.70;;;3.53;;
52230;SDS011;38192;50.102;19.884;2022-08-05T10:46:53;12.23;;;3.90;;
52230;SDS011;38192;50.102;19.884;2022-08-05T10:49:21;6.50;;;3.88;;
52230;SDS011;38192;50.102;19.884;2022-08-05T10:51:50;7.32;;;3.90;;
52230;SDS011;38192;50.102;19.884;2022-08-05T10:54:22;7.57;;;3.60;;
52230;SDS011;38192;50.102;19.884;2022-08-05T10:56:50;9.98;;;4.10;;
52230;SDS011;38192;50.102;19.884;2022-08-05T10:59:25;6.10;;;3.37;;
52230;SDS011;38192;50.102;19.884;2022-08-05T11:04:53;5.45;;;3.80;;
52230;SDS011;38192;50.102;19.884;2022-08-05T11:07:19;6.03;;;3.78;;
52230;SDS011;38192;50.102;19.884;2022-08-05T11:09:52;4.20;;;3.80;;
52230;SDS011;38192;50.102;19.884;2022-08-05T11:15:06;8.32;;;3.78;;
52230;SDS011;38192;50.102;19.884;2022-08-05T11:17:37;8.85;;;4.18;;
52230;SDS011;38192;50.102;19.884;2022-08-05T11:20:05;9.20;;;3.60;;
52230;SDS011;38192;50.102;19.884;2022-08-05T11:22:47;6.05;;;3.65;;
52230;SDS011;38192;50.102;19.884;2022-08-05T11:25:35;10.65;;;3.90;;
52230;SDS011;38192;50.102;19.884;2022-08-05T11:33:31;7.82;;;4.00;;
52230;SDS011;38192;50.102;19.884;2022-08-05T11:36:02;6.47;;;3.90;;
52230;SDS011;38192;50.102;19.884;2022-08-05T11:43:42;8.25;;;4.15;;
52230;SDS011;38192;50.102;19.884;2022-08-05T11:46:16;8.38;;;4.20;;
52230;SDS011;38192;50.102;19.884;2022-08-05T11:48:42;4.80;;;4.00;;
52230;SDS011;38192;50.102;19.884;2022-08-05T11:51:08;5.68;;;3.80;;
52230;SDS011;38192;50.102;19.884;2022-08-05T11:53:34;10.60;;;4.00;;
52230;SDS011;38192;50.102;19.884;2022-08-05T11:56:01;6.50;;;3.50;;
52230;SDS011;38192;50.102;19.884;2022-08-05T11:58:37;7.15;;;3.90;;
52230;SDS011;38192;50.102;19.884;2022-08-05T12:01:06;7.40;;;3.85;;
52230;SDS011;38192;50.102;19.884;2022-08-05T12:03:41;4.28;;;3.03;;
52230;SDS011;38192;50.102;19.884;2022-08-05T12:06:24;7.43;;;3.05;;
52230;SDS011;38192;50.102;19.884;2022-08-05T12:08:56;7.82;;;3.25;;
52230;SDS011;38192;50.102;19.884;2022-08-05T12:11:24;5.65;;;2.95;;
52230;SDS011;38192;50.102;19.884;2022-08-05T12:13:59;5.60;;;2.90;;
52230;SDS011;38192;50.102;19.884;2022-08-05T12:16:27;6.15;;;3.05;;
52230;SDS011;38192;50.102;19.884;2022-08-05T12:18:56;4.45;;;3.38;;
52230;SDS011;38192;50.102;19.884;2022-08-05T12:21:32;9.85;;;3.20;;
52230;SDS011;38192;50.102;19.884;2022-08-05T12:24:03;5.40;;;3.00;;
52230;SDS011;38192;50.102;19.884;2022-08-05T12:29:02;8.45;;;2.85;;
52230;SDS011;38192;50.102;19.884;2022-08-05T12:31:34;5.10;;;3.03;;
52230;SDS011;38192;50.102;19.884;2022-08-05T12:34:00;4.20;;;3.40;;
52230;SDS011;38192;50.102;19.884;2022-08-05T12:36:28;3.65;;;3.10;;
52230;SDS011;38192;50.102;19.884;2022-08-05T12:38:55;8.73;;;3.55;;
52230;SDS011;38192;50.102;19.884;2022-08-05T12:41:22;6.40;;;2.95;;
52230;SDS011;38192;50.102;19.884;2022-08-05T12:46:21;9.23;;;3.67;;
52230;SDS011;38192;50.102;19.884;2022-08-05T12:49:22;4.65;;;3.53;;
52230;SDS011;38192;50.102;19.884;2022-08-05T12:51:45;3.30;;;3.00;;
52230;SDS011;38192;50.102;19.884;2022-08-05T12:54:16;5.20;;;3.38;;
52230;SDS011;38192;50.102;19.884;2022-08-05T12:56:53;4.28;;;2.97;;
52230;SDS011;38192;50.102;19.884;2022-08-05T12:59:24;3.67;;;2.78;;
52230;SDS011;38192;50.102;19.884;2022-08-05T13:02:02;3.78;;;3.15;;
52230;SDS011;38192;50.102;19.884;2022-08-05T13:04:31;2.83;;;2.55;;
52230;SDS011;38192;50.102;19.884;2022-08-05T13:07:06;4.80;;;2.95;;
52230;SDS011;38192;50.102;19.884;2022-08-05T13:09:37;3.30;;;2.58;;
52230;SDS011;38192;50.102;19.884;2022-08-05T13:12:04;3.67;;;2.95;;
52230;SDS011;38192;50.102;19.884;2022-08-05T13:14:36;5.85;;;2.72;;
52230;SDS011;38192;50.102;19.884;2022-08-05T13:17:08;5.28;;;3.00;;
52230;SDS011;38192;50.102;19.884;2022-08-05T13:19:40;3.88;;;3.00;;
52230;SDS011;38192;50.102;19.884;2022-08-05T13:22:07;2.97;;;2.67;;
52230;SDS011;38192;50.102;19.884;2022-08-05T13:24:33;12.48;;;3.38;;
52230;SDS011;38192;50.102;19.884;2022-08-05T13:26:59;7.05;;;3.20;;
52230;SDS011;38192;50.102;19.884;2022-08-05T13:29:25;4.65;;;3.35;;
52230;SDS011;38192;50.102;19.884;2022-08-05T13:31:51;5.88;;;3.15;;
52230;SDS011;38192;50.102;19.884;2022-08-05T13:34:16;6.82;;;2.78;;
52230;SDS011;38192;50.102;19.884;2022-08-05T13:36:42;5.18;;;3.05;;
52230;SDS011;38192;50.102;19.884;2022-08-05T13:39:08;2.95;;;2.75;;
52230;SDS011;38192;50.102;19.884;2022-08-05T13:41:35;7.97;;;3.08;;
52230;SDS011;38192;50.102;19.884;2022-08-05T13:44:01;9.05;;;3.30;;
52230;SDS011;38192;50.102;19.884;2022-08-05T13:46:27;6.13;;;2.70;;
52230;SDS011;38192;50.102;19.884;2022-08-05T13:48:53;3.45;;;2.90;;
52230;SDS011;38192;50.102;19.884;2022-08-05T13:51:29;3.20;;;2.78;;
52230;SDS011;38192;50.102;19.884;2022-08-05T13:53:57;3.63;;;2.67;;
52230;SDS011;38192;50.102;19.884;2022-08-05T13:56:23;3.70;;;3.20;;
52230;SDS011;38192;50.102;19.884;2022-08-05T13:58:49;3.35;;;2.78;;
52230;SDS011;38192;50.102;19.884;2022-08-05T14:01:15;3.80;;;3.10;;
52230;SDS011;38192;50.102;19.884;2022-08-05T14:03:41;3.28;;;2.50;;
52230;SDS011;38192;50.102;19.884;2022-08-05T14:06:07;4.38;;;3.00;;
52230;SDS011;38192;50.102;19.884;2022-08-05T14:08:33;3.33;;;2.70;;
52230;SDS011;38192;50.102;19.884;2022-08-05T14:10:59;8.10;;;3.10;;
52230;SDS011;38192;50.102;19.884;2022-08-05T14:13:25;7.10;;;2.63;;
52230;SDS011;38192;50.102;19.884;2022-08-05T14:15:51;3.13;;;2.58;;
52230;SDS011;38192;50.102;19.884;2022-08-05T14:18:17;5.32;;;2.72;;
52230;SDS011;38192;50.102;19.884;2022-08-05T14:20:43;2.75;;;2.45;;
52230;SDS011;38192;50.102;19.884;2022-08-05T14:23:09;6.45;;;2.63;;
52230;SDS011;38192;50.102;19.884;2022-08-05T14:25:34;5.82;;;2.83;;
52230;SDS011;38192;50.102;19.884;2022-08-05T14:28:00;4.72;;;2.55;;
52230;SDS011;38192;50.102;19.884;2022-08-05T14:30:26;8.75;;;2.83;;
52230;SDS011;38192;50.102;19.884;2022-08-05T14:32:52;5.22;;;2.85;;
52230;SDS011;38192;50.102;19.884;2022-08-05T14:35:18;4.47;;;2.72;;
52230;SDS011;38192;50.102;19.884;2022-08-05T14:37:43;8.88;;;3.83;;
52230;SDS011;38192;50.102;19.884;2022-08-05T14:40:10;3.83;;;2.75;;
52230;SDS011;38192;50.102;19.884;2022-08-05T14:42:36;3.30;;;3.00;;
52230;SDS011;38192;50.102;19.884;2022-08-05T14:45:02;3.65;;;2.70;;
52230;SDS011;38192;50.102;19.884;2022-08-05T14:47:28;4.53;;;2.97;;
52230;SDS011;38192;50.102;19.884;2022-08-05T14:49:54;8.80;;;3.25;;
52230;SDS011;38192;50.102;19.884;2022-08-05T14:52:19;3.63;;;2.78;;
52230;SDS011;38192;50.102;19.884;2022-08-05T14:54:45;6.40;;;3.08;;
52230;SDS011;38192;50.102;19.884;2022-08-05T14:57:11;5.63;;;2.47;;
52230;SDS011;38192;50.102;19.884;2022-08-05T14:59:37;8.27;;;2.83;;
52230;SDS011;38192;50.102;19.884;2022-08-05T15:02:03;2.60;;;2.40;;
52230;SDS011;38192;50.102;19.884;2022-08-05T15:04:29;4.05;;;2.63;;
52230;SDS011;38192;50.102;19.884;2022-08-05T15:06:55;5.05;;;2.78;;
52230;SDS011;38192;50.102;19.884;2022-08-05T15:09:21;2.75;;;2.50;;
52230;SDS011;38192;50.102;19.884;2022-08-05T15:11:47;3.38;;;2.70;;
52230;SDS011;38192;50.102;19.884;2022-08-05T15:14:13;6.15;;;2.88;;